Time;durP1;ratioP1;P1;durP2;ratioP2;P2;SDS_P1;SDS_P2;PMS_P1;PMS_P2;Temp;Humidity;BMP_temperature;BMP_pressure;BME280_temperature;BME280_humidity;BME280_pressure;Samples;Min_cycle;Max_cycle;Signal;HPM_P1;HPM_P2
2023/07/22 00:00:48;;;;;;;7.53;5.77;;;11.00;99.90;;;;;;4845662;29;20322;-82
2023/07/22 00:03:13;;;;;;;9.00;7.00;;;11.00;99.90;;;;;;4845872;29;20221;-83
2023/07/22 00:05:40;;;;;;;12.67;6.93;;;11.00;99.90;;;;;;4845962;29;20192;-82
2023/07/22 00:08:05;;;;;;;10.20;7.30;;;10.90;99.90;;;;;;4845766;29;20528;-82
2023/07/22 00:10:31;;;;;;;10.53;7.57;;;11.00;99.90;;;;;;4845904;29;20516;-82
2023/07/22 00:12:57;;;;;;;8.20;6.10;;;10.90;99.90;;;;;;4846440;29;20422;-83
2023/07/22 00:15:23;;;;;;;10.80;6.97;;;10.90;99.90;;;;;;4845046;29;20184;-82
2023/07/22 00:17:50;;;;;;;6.90;6.03;;;10.90;99.90;;;;;;4845977;29;20227;-82
2023/07/22 00:20:16;;;;;;;11.40;7.00;;;10.80;99.90;;;;;;4845627;29;20823;-83
2023/07/22 00:22:42;;;;;;;10.20;7.07;;;10.80;99.90;;;;;;4845012;29;20410;-82
2023/07/22 00:25:11;;;;;;;9.00;7.17;;;10.80;99.90;;;;;;4844395;29;20209;-83
2023/07/22 00:27:38;;;;;;;9.50;6.15;;;10.80;99.90;;;;;;4841724;29;20864;-82
2023/07/22 00:30:08;;;;;;;9.70;7.50;;;10.70;99.90;;;;;;4845725;29;20224;-82
2023/07/22 00:32:37;;;;;;;8.57;7.73;;;10.70;99.90;;;;;;4845221;29;20468;-82
2023/07/22 00:35:06;;;;;;;9.90;6.50;;;10.60;99.90;;;;;;4844991;29;20445;-82
2023/07/22 00:37:32;;;;;;;16.80;8.00;;;10.60;99.90;;;;;;4844482;29;20429;-83
2023/07/22 00:39:58;;;;;;;8.90;7.47;;;10.60;99.90;;;;;;4843599;29;20905;-82
2023/07/22 00:42:24;;;;;;;9.93;6.70;;;10.50;99.90;;;;;;4844338;29;20474;-83
2023/07/22 00:44:49;;;;;;;9.40;6.73;;;10.50;99.90;;;;;;4845172;29;20197;-82
2023/07/22 00:47:17;;;;;;;6.87;5.93;;;10.50;99.90;;;;;;4844950;29;20424;-82
2023/07/22 00:49:44;;;;;;;9.90;8.13;;;10.50;99.90;;;;;;4844720;29;20259;-82
2023/07/22 00:52:09;;;;;;;12.73;7.00;;;10.50;99.90;;;;;;4841442;29;20450;-82
2023/07/22 00:54:35;;;;;;;15.03;8.10;;;10.50;99.90;;;;;;4844808;29;20422;-82
2023/07/22 00:57:00;;;;;;;9.57;7.00;;;10.50;99.90;;;;;;4845679;29;20257;-82
2023/07/22 00:59:26;;;;;;;8.73;6.43;;;10.50;99.90;;;;;;4844964;29;20303;-83
2023/07/22 01:01:52;;;;;;;9.17;7.00;;;10.50;99.90;;;;;;4829261;29;20185;-82
2023/07/22 01:04:21;;;;;;;9.17;7.20;;;10.40;99.90;;;;;;4845151;29;20442;-83
2023/07/22 01:06:49;;;;;;;9.50;7.35;;;10.40;99.90;;;;;;4845294;29;20267;-82
2023/07/22 01:09:14;;;;;;;9.40;6.30;;;10.40;99.90;;;;;;4845267;29;20257;-82
2023/07/22 01:11:40;;;;;;;10.07;7.13;;;10.30;99.90;;;;;;4844834;29;20429;-82
2023/07/22 01:14:07;;;;;;;9.03;7.00;;;10.30;99.90;;;;;;4845014;29;20622;-82
2023/07/22 01:16:34;;;;;;;10.30;7.43;;;10.30;99.90;;;;;;4828653;29;20193;-82
2023/07/22 01:18:59;;;;;;;8.32;7.00;;;10.30;99.90;;;;;;4844781;29;21005;-82
2023/07/22 01:21:26;;;;;;;9.73;6.93;;;10.30;99.90;;;;;;4844474;29;20189;-83
2023/07/22 01:23:52;;;;;;;9.73;7.27;;;10.30;99.90;;;;;;4844997;29;20516;-82
2023/07/22 01:26:18;;;;;;;10.02;6.88;;;10.20;99.90;;;;;;4844935;29;20453;-83
2023/07/22 01:28:44;;;;;;;11.80;7.40;;;10.20;99.90;;;;;;4844969;29;20723;-82
2023/07/22 01:31:10;;;;;;;11.13;7.60;;;10.20;99.90;;;;;;4844934;29;20470;-82
2023/07/22 01:33:35;;;;;;;11.53;7.30;;;10.30;99.90;;;;;;4844498;29;20719;-82
2023/07/22 01:36:01;;;;;;;9.20;7.67;;;10.20;99.90;;;;;;4844951;29;20189;-82
2023/07/22 01:38:29;;;;;;;10.02;7.72;;;10.20;99.90;;;;;;4844775;29;20588;-82
2023/07/22 01:40:54;;;;;;;9.77;7.20;;;10.20;99.90;;;;;;4828403;29;20653;-82
2023/07/22 01:43:20;;;;;;;9.37;7.60;;;10.20;99.90;;;;;;4844103;29;20433;-83
2023/07/22 01:45:46;;;;;;;9.48;8.13;;;10.20;99.90;;;;;;4844522;29;20193;-82
2023/07/22 01:48:12;;;;;;;9.17;7.40;;;10.10;99.90;;;;;;4844349;29;20195;-82
2023/07/22 01:50:37;;;;;;;13.60;8.50;;;10.10;99.90;;;;;;4844430;29;20204;-82
2023/07/22 01:53:05;;;;;;;11.23;7.70;;;10.10;99.90;;;;;;4844786;29;20184;-82
2023/07/22 01:55:32;;;;;;;13.82;8.38;;;10.10;99.90;;;;;;4844151;29;20185;-82
2023/07/22 01:57:58;;;;;;;11.07;7.97;;;10.10;99.90;;;;;;4844680;29;20616;-82
2023/07/22 02:00:23;;;;;;;10.17;7.97;;;10.10;99.90;;;;;;4847727;29;20280;-83
2023/07/22 02:02:49;;;;;;;12.20;8.47;;;10.10;99.90;;;;;;4848666;29;20436;-82
2023/07/22 02:05:15;;;;;;;12.17;8.07;;;10.10;99.90;;;;;;4847821;29;20193;-82
2023/07/22 02:07:40;;;;;;;11.13;8.00;;;10.10;99.90;;;;;;4847914;29;20203;-82
2023/07/22 02:10:06;;;;;;;10.67;7.43;;;10.10;99.90;;;;;;4847894;29;20445;-82
2023/07/22 02:12:32;;;;;;;10.13;8.07;;;10.10;99.90;;;;;;4847837;29;20187;-82
2023/07/22 02:14:57;;;;;;;12.10;8.00;;;10.10;99.90;;;;;;4847920;29;20189;-82
2023/07/22 02:17:23;;;;;;;12.77;8.60;;;10.10;99.90;;;;;;4847571;29;20196;-82
2023/07/22 02:19:49;;;;;;;11.97;8.00;;;10.10;99.90;;;;;;4847671;29;20369;-82
2023/07/22 02:22:15;;;;;;;11.10;8.85;;;10.10;99.90;;;;;;4848331;29;20208;-82
2023/07/22 02:24:41;;;;;;;10.03;8.30;;;10.10;99.90;;;;;;4847806;29;20581;-82
2023/07/22 02:27:08;;;;;;;12.97;8.67;;;10.20;99.90;;;;;;4848056;29;20185;-82
2023/07/22 02:29:34;;;;;;;8.90;7.85;;;10.20;99.90;;;;;;4847926;29;20188;-82
2023/07/22 02:31:59;;;;;;;10.63;8.50;;;10.20;99.90;;;;;;4847834;29;20228;-82
2023/07/22 02:34:25;;;;;;;12.73;8.23;;;10.20;99.90;;;;;;4847753;29;20283;-82
2023/07/22 02:36:51;;;;;;;11.80;9.07;;;10.20;99.90;;;;;;4847816;29;20212;-82
2023/07/22 02:39:16;;;;;;;12.90;9.30;;;10.20;99.90;;;;;;4847950;29;20292;-82
2023/07/22 02:41:42;;;;;;;13.73;9.10;;;10.30;99.90;;;;;;4847144;29;20216;-82
2023/07/22 02:44:08;;;;;;;11.17;8.57;;;10.30;99.90;;;;;;4847530;29;20181;-82
2023/07/22 02:46:33;;;;;;;9.63;8.53;;;10.20;99.90;;;;;;4831315;29;20193;-82
2023/07/22 02:48:59;;;;;;;10.77;8.20;;;10.20;99.90;;;;;;4847541;29;20430;-82
2023/07/22 02:51:24;;;;;;;11.27;9.20;;;10.30;99.90;;;;;;4847542;29;20192;-83
2023/07/22 02:53:50;;;;;;;11.97;9.10;;;10.20;99.90;;;;;;4847399;29;20189;-82
2023/07/22 02:56:16;;;;;;;11.63;8.70;;;10.20;99.90;;;;;;4847313;29;20229;-82
2023/07/22 02:58:41;;;;;;;9.83;8.43;;;10.20;99.90;;;;;;4847429;29;20192;-82
2023/07/22 03:01:08;;;;;;;12.50;10.23;;;10.20;99.90;;;;;;4847210;29;20185;-82
2023/07/22 03:03:34;;;;;;;11.90;8.70;;;10.20;99.90;;;;;;4846812;29;20193;-82
2023/07/22 03:06:01;;;;;;;11.65;8.77;;;10.20;99.90;;;;;;4847362;29;20241;-82
2023/07/22 03:08:27;;;;;;;12.52;9.40;;;10.20;99.90;;;;;;4846976;29;20181;-83
2023/07/22 03:10:52;;;;;;;10.83;8.20;;;10.20;99.90;;;;;;4847276;29;20193;-82
2023/07/22 03:13:18;;;;;;;11.00;9.10;;;10.20;99.90;;;;;;4847295;29;20437;-82
2023/07/22 03:15:44;;;;;;;10.97;8.93;;;10.20;99.90;;;;;;4846550;29;20189;-82
2023/07/22 03:18:10;;;;;;;14.23;9.70;;;10.20;99.90;;;;;;4847117;29;20541;-82
2023/07/22 03:20:37;;;;;;;15.63;8.65;;;10.20;99.90;;;;;;4847390;29;20560;-82
2023/07/22 03:23:04;;;;;;;12.48;9.70;;;10.20;99.90;;;;;;4847317;29;20706;-82
2023/07/22 03:25:30;;;;;;;10.10;8.85;;;10.20;99.90;;;;;;4846921;29;20177;-82
2023/07/22 03:27:56;;;;;;;13.50;8.83;;;10.20;99.90;;;;;;4847052;29;20583;-82
2023/07/22 03:30:22;;;;;;;12.50;8.60;;;10.10;99.90;;;;;;4846607;29;20197;-82
2023/07/22 03:32:50;;;;;;;10.38;8.63;;;10.10;99.90;;;;;;4846562;29;20501;-82
2023/07/22 03:35:16;;;;;;;10.40;7.97;;;10.10;99.90;;;;;;4847257;29;20189;-82
2023/07/22 03:37:42;;;;;;;12.07;8.98;;;10.10;99.90;;;;;;4846627;29;20418;-82
2023/07/22 03:40:29;;;;;;;9.80;8.40;;;10.10;99.90;;;;;;4846586;29;20229;-82
2023/07/22 03:42:57;;;;;;;11.17;8.40;;;10.10;99.90;;;;;;4846387;29;20777;-82
2023/07/22 03:45:23;;;;;;;11.68;8.68;;;10.10;99.90;;;;;;4846608;29;20941;-82
2023/07/22 03:47:59;;;;;;;11.07;8.50;;;10.00;99.90;;;;;;4846011;29;20189;-82
2023/07/22 03:50:26;;;;;;;12.00;8.30;;;10.00;99.90;;;;;;4830147;29;20436;-82
2023/07/22 03:52:51;;;;;;;14.95;8.73;;;10.00;99.90;;;;;;4844614;29;20505;-82
2023/07/22 03:55:19;;;;;;;10.00;8.33;;;10.00;99.90;;;;;;4829546;29;20219;-82
2023/07/22 03:57:44;;;;;;;12.07;8.60;;;10.00;99.90;;;;;;4845491;29;20197;-82
2023/07/22 04:00:10;;;;;;;12.77;8.80;;;10.00;99.90;;;;;;4846539;29;20315;-82
2023/07/22 04:02:37;;;;;;;12.43;8.27;;;10.10;99.90;;;;;;4846221;29;20288;-82
2023/07/22 04:05:03;;;;;;;11.93;8.57;;;10.10;99.90;;;;;;4846020;29;20535;-82
2023/07/22 04:07:28;;;;;;;12.83;9.47;;;10.20;99.90;;;;;;4846205;29;20449;-83
2023/07/22 04:09:54;;;;;;;12.90;7.60;;;10.20;99.90;;;;;;4829585;29;20464;-82
2023/07/22 04:12:20;;;;;;;11.20;8.27;;;10.20;99.90;;;;;;4845980;29;20189;-82
2023/07/22 04:14:45;;;;;;;10.60;8.20;;;10.20;99.90;;;;;;4846038;29;20193;-82
2023/07/22 04:17:11;;;;;;;12.57;8.70;;;10.30;99.90;;;;;;4846230;29;20185;-82
2023/07/22 04:19:37;;;;;;;14.50;9.00;;;10.30;99.90;;;;;;4845841;29;20217;-83
2023/07/22 04:22:04;;;;;;;12.23;9.00;;;10.30;99.90;;;;;;4845348;29;20433;-82
2023/07/22 04:24:32;;;;;;;12.70;8.50;;;10.40;99.90;;;;;;4845968;29;20265;-83
2023/07/22 04:26:58;;;;;;;11.20;8.60;;;10.50;99.90;;;;;;4845915;29;20421;-82
2023/07/22 04:29:24;;;;;;;10.30;8.07;;;10.50;99.90;;;;;;4846262;29;20498;-82
2023/07/22 04:31:49;;;;;;;10.60;8.73;;;10.50;99.90;;;;;;4845135;29;20660;-82
2023/07/22 04:34:15;;;;;;;9.57;7.67;;;10.50;99.90;;;;;;4846700;29;20185;-82
2023/07/22 04:36:40;;;;;;;13.47;9.50;;;10.60;99.90;;;;;;4845546;29;20252;-82
2023/07/22 04:39:07;;;;;;;13.20;9.70;;;10.60;99.90;;;;;;4845589;29;20240;-82
2023/07/22 04:41:33;;;;;;;12.50;8.43;;;10.60;99.90;;;;;;4845754;29;20200;-82
2023/07/22 04:43:58;;;;;;;11.70;9.00;;;10.70;99.90;;;;;;4829562;29;20430;-82
2023/07/22 04:46:25;;;;;;;11.30;8.63;;;10.70;99.90;;;;;;4845746;29;20188;-82
2023/07/22 04:48:54;;;;;;;12.20;8.67;;;10.70;99.90;;;;;;4845130;29;20285;-82
2023/07/22 04:51:20;;;;;;;10.93;8.00;;;10.70;99.90;;;;;;4845439;29;20845;-82
2023/07/22 04:53:45;;;;;;;11.20;7.97;;;10.80;99.90;;;;;;4829265;29;20434;-82
2023/07/22 04:56:11;;;;;;;10.73;8.70;;;10.80;99.90;;;;;;4845373;29;20697;-82
2023/07/22 04:58:37;;;;;;;13.83;7.70;;;10.80;99.90;;;;;;4844949;29;20189;-82
2023/07/22 05:01:02;;;;;;;11.03;7.50;;;10.80;99.90;;;;;;4844941;29;20272;-82
2023/07/22 05:03:28;;;;;;;11.00;8.70;;;10.90;99.90;;;;;;4845489;29;20242;-82
2023/07/22 05:05:53;;;;;;;11.07;8.53;;;10.90;99.90;;;;;;4844817;29;20191;-82
2023/07/22 05:08:19;;;;;;;11.07;8.10;;;10.90;99.90;;;;;;4845328;29;20589;-82
2023/07/22 05:10:44;;;;;;;11.43;9.30;;;11.00;99.90;;;;;;4844783;29;20192;-82
2023/07/22 05:13:10;;;;;;;11.43;8.30;;;11.10;99.90;;;;;;4845051;29;20185;-82
2023/07/22 05:15:36;;;;;;;10.23;8.00;;;11.20;99.90;;;;;;4844646;29;20240;-82
2023/07/22 05:18:01;;;;;;;11.27;8.43;;;11.20;99.90;;;;;;4845081;29;20275;-82
2023/07/22 05:20:27;;;;;;;12.70;9.30;;;11.30;99.90;;;;;;4845167;29;20221;-82
2023/07/22 05:22:52;;;;;;;11.00;8.10;;;11.30;99.90;;;;;;4844784;29;20188;-82
2023/07/22 05:25:18;;;;;;;10.87;7.87;;;11.40;99.90;;;;;;4845542;29;20275;-83
2023/07/22 05:27:43;;;;;;;10.73;7.80;;;11.50;99.90;;;;;;4841531;29;20569;-83
2023/07/22 05:30:10;;;;;;;8.77;7.73;;;11.60;99.90;;;;;;4843975;29;20196;-94
2023/07/22 05:32:36;;;;;;;13.27;8.53;;;11.70;99.90;;;;;;4843921;29;20237;-93
2023/07/22 05:35:04;;;;;;;13.13;8.47;;;11.80;99.90;;;;;;4842058;29;20498;-92
2023/07/22 05:37:29;;;;;;;10.60;8.37;;;11.90;99.90;;;;;;4842940;29;20201;-92
2023/07/22 05:39:55;;;;;;;12.90;7.90;;;12.10;99.90;;;;;;4843030;29;20540;-92
2023/07/22 05:42:20;;;;;;;13.60;8.57;;;12.20;99.90;;;;;;4843161;29;20705;-93
2023/07/22 05:44:47;;;;;;;12.30;7.90;;;12.30;99.90;;;;;;4827041;29;20189;-93
2023/07/22 05:47:13;;;;;;;9.50;6.60;;;12.40;99.90;;;;;;4828876;29;20184;-81
2023/07/22 05:49:39;;;;;;;9.63;7.80;;;12.60;99.90;;;;;;4828113;29;20524;-82
2023/07/22 05:52:05;;;;;;;9.80;7.27;;;12.60;99.90;;;;;;4845202;29;20509;-82
2023/07/22 05:54:31;;;;;;;9.70;8.17;;;12.70;99.90;;;;;;4844731;29;20185;-82
2023/07/22 05:56:57;;;;;;;8.93;7.03;;;12.80;99.90;;;;;;4844247;29;20436;-82
2023/07/22 05:59:22;;;;;;;9.83;8.00;;;12.90;99.90;;;;;;4828436;29;20667;-82
2023/07/22 06:01:48;;;;;;;9.70;8.70;;;13.00;99.90;;;;;;4812878;29;20642;-82
2023/07/22 06:04:13;;;;;;;8.50;7.03;;;13.10;99.90;;;;;;4844873;29;20189;-82
2023/07/22 06:06:39;;;;;;;9.10;7.33;;;13.10;99.90;;;;;;4828294;29;20192;-82
2023/07/22 06:09:04;;;;;;;8.43;7.50;;;13.20;99.90;;;;;;4844931;29;20519;-81
2023/07/22 06:11:30;;;;;;;8.90;6.80;;;13.40;99.90;;;;;;4844917;29;20189;-81
2023/07/22 06:13:56;;;;;;;10.17;7.70;;;13.50;99.90;;;;;;4828020;29;20196;-81
2023/07/22 06:16:22;;;;;;;8.10;7.30;;;13.50;99.90;;;;;;4844746;29;20639;-81
2023/07/22 06:18:48;;;;;;;10.20;6.80;;;13.70;99.90;;;;;;4844492;29;20225;-81
2023/07/22 06:21:13;;;;;;;8.40;7.03;;;13.80;99.90;;;;;;4845056;29;20181;-82
2023/07/22 06:23:39;;;;;;;7.43;6.63;;;14.00;99.90;;;;;;4844287;29;20429;-82
2023/07/22 06:26:04;;;;;;;8.37;5.77;;;14.10;99.90;;;;;;4844774;29;20607;-82
2023/07/22 06:28:30;;;;;;;8.53;6.20;;;14.30;99.90;;;;;;4826788;29;20219;-84
2023/07/22 06:30:57;;;;;;;12.20;7.10;;;14.70;99.90;;;;;;4827051;29;20243;-84
2023/07/22 06:33:22;;;;;;;8.00;7.10;;;14.80;99.90;;;;;;4843565;29;20193;-84
2023/07/22 06:35:48;;;;;;;8.23;7.23;;;15.00;99.90;;;;;;4843122;29;20399;-84
2023/07/22 06:38:13;;;;;;;8.13;6.37;;;15.20;99.90;;;;;;4820495;29;20248;-84
2023/07/22 06:40:40;;;;;;;7.00;6.30;;;15.40;99.90;;;;;;4831998;29;20230;-84
2023/07/22 06:43:05;;;;;;;8.80;6.47;;;15.60;99.90;;;;;;4832096;29;20196;-85
2023/07/22 06:45:32;;;;;;;10.97;6.30;;;15.70;99.90;;;;;;4819819;29;20479;-84
2023/07/22 06:47:58;;;;;;;9.10;6.60;;;15.60;99.90;;;;;;4836874;29;20584;-85
2023/07/22 06:50:23;;;;;;;9.33;6.17;;;15.80;99.90;;;;;;4823687;29;20532;-85
2023/07/22 06:52:49;;;;;;;12.33;6.53;;;15.80;99.90;;;;;;4846589;29;20193;-83
2023/07/22 06:55:15;;;;;;;17.40;7.10;;;15.90;99.90;;;;;;4826653;29;20189;-85
2023/07/22 06:57:40;;;;;;;11.30;6.23;;;16.10;99.90;;;;;;4845585;29;20280;-84
2023/07/22 07:00:07;;;;;;;10.93;5.73;;;16.30;99.90;;;;;;4846537;29;20254;-84
2023/07/22 07:02:32;;;;;;;11.40;6.80;;;16.40;99.90;;;;;;4846292;29;20549;-84
2023/07/22 07:04:58;;;;;;;11.63;6.50;;;16.80;99.90;;;;;;4845851;29;20430;-84
2023/07/22 07:07:23;;;;;;;14.20;6.30;;;16.80;99.90;;;;;;4830090;29;20185;-83
2023/07/22 07:09:50;;;;;;;16.70;6.80;;;17.00;99.90;;;;;;4845359;29;20200;-82
2023/07/22 07:12:16;;;;;;;13.73;7.40;;;17.30;99.90;;;;;;4845894;29;20657;-81
2023/07/22 07:14:41;;;;;;;7.00;5.40;;;17.10;99.90;;;;;;4845729;29;20405;-82
2023/07/22 07:17:07;;;;;;;9.97;5.97;;;17.40;99.90;;;;;;4828887;29;20181;-82
2023/07/22 07:19:33;;;;;;;10.90;6.47;;;17.40;99.90;;;;;;4829366;29;20219;-83
2023/07/22 07:21:58;;;;;;;9.07;6.10;;;17.70;99.90;;;;;;4846116;29;20200;-83
2023/07/22 07:24:24;;;;;;;9.70;5.90;;;17.90;99.90;;;;;;4828688;29;20393;-83
2023/07/22 07:26:50;;;;;;;8.40;5.97;;;17.90;99.90;;;;;;4845894;29;20181;-83
2023/07/22 07:29:15;;;;;;;7.60;4.70;;;17.90;99.90;;;;;;4845832;29;20561;-84
2023/07/22 07:31:41;;;;;;;7.87;6.50;;;17.80;99.90;;;;;;4828176;29;20331;-84
2023/07/22 07:34:06;;;;;;;13.93;7.13;;;18.00;99.90;;;;;;4830127;29;20228;-85
2023/07/22 07:36:33;;;;;;;8.57;6.23;;;18.20;99.90;;;;;;4845622;29;20192;-84
2023/07/22 07:39:02;;;;;;;7.03;5.33;;;18.20;99.90;;;;;;4845251;29;21056;-84
2023/07/22 07:41:28;;;;;;;7.13;5.83;;;18.50;99.90;;;;;;4814389;29;20400;-83
2023/07/22 07:43:54;;;;;;;8.40;6.73;;;18.40;99.90;;;;;;4828603;29;20504;-83
2023/07/22 07:46:23;;;;;;;7.37;6.40;;;18.40;99.90;;;;;;4843941;29;20191;-83
2023/07/22 07:48:54;;;;;;;7.93;5.50;;;18.60;99.90;;;;;;4844939;29;20835;-84
2023/07/22 07:51:21;;;;;;;9.13;6.20;;;18.70;99.90;;;;;;4845226;29;20385;-84
2023/07/22 07:53:47;;;;;;;8.63;5.60;;;18.70;99.90;;;;;;4844443;29;20418;-83
2023/07/22 07:56:13;;;;;;;9.00;5.60;;;18.80;99.90;;;;;;4843056;29;20437;-83
2023/07/22 07:58:39;;;;;;;10.13;6.00;;;19.00;99.90;;;;;;4844982;29;20242;-83
2023/07/22 08:01:06;;;;;;;8.17;6.30;;;19.20;99.90;;;;;;4844784;29;20408;-83
2023/07/22 08:03:33;;;;;;;9.63;6.20;;;19.20;99.90;;;;;;4829414;29;20459;-83
2023/07/22 08:05:58;;;;;;;6.60;5.47;;;19.10;99.90;;;;;;4828557;29;20445;-83
2023/07/22 08:08:24;;;;;;;8.00;5.23;;;19.10;99.90;;;;;;4844091;29;20397;-88
2023/07/22 08:11:02;;;;;;;6.77;5.53;;;19.30;99.90;;;;;;4827933;29;20227;-84
2023/07/22 08:13:29;;;;;;;7.33;5.60;;;19.20;99.90;;;;;;4844929;29;20512;-82
2023/07/22 08:15:55;;;;;;;7.40;5.50;;;19.70;99.90;;;;;;4843628;29;20421;-84
2023/07/22 08:18:21;;;;;;;6.40;5.20;;;19.60;99.90;;;;;;4828530;29;20772;-83
2023/07/22 08:20:47;;;;;;;6.60;5.10;;;19.70;99.90;;;;;;4843923;29;20256;-84
2023/07/22 08:23:13;;;;;;;5.40;4.90;;;20.30;99.90;;;;;;4843368;29;20177;-85
2023/07/22 08:25:39;;;;;;;7.50;5.80;;;20.00;99.90;;;;;;4828410;29;20430;-82
2023/07/22 08:28:04;;;;;;;6.63;4.93;;;20.10;99.90;;;;;;4844816;29;20421;-82
2023/07/22 08:30:30;;;;;;;12.20;7.30;;;20.10;99.90;;;;;;4827783;29;20195;-83
2023/07/22 08:32:55;;;;;;;7.97;5.40;;;19.90;99.90;;;;;;4825404;29;20205;-83
2023/07/22 08:35:22;;;;;;;9.07;5.87;;;19.90;99.90;;;;;;4826368;29;20220;-82
2023/07/22 08:37:47;;;;;;;8.47;6.13;;;19.80;99.90;;;;;;4825976;29;20276;-83
2023/07/22 08:40:13;;;;;;;8.37;6.50;;;19.80;99.90;;;;;;4826592;29;21019;-83
2023/07/22 08:42:41;;;;;;;10.80;5.87;;;19.90;99.90;;;;;;4826538;29;20213;-83
2023/07/22 08:45:09;;;;;;;8.50;6.23;;;19.90;99.90;;;;;;4825196;29;20710;-83
2023/07/22 08:47:39;;;;;;;6.17;5.53;;;20.00;99.90;;;;;;4826530;29;20431;-83
2023/07/22 08:50:07;;;;;;;6.20;5.60;;;20.20;99.90;;;;;;4826374;29;20442;-83
2023/07/22 08:52:33;;;;;;;8.00;5.70;;;20.30;99.90;;;;;;4825187;29;20430;-82
2023/07/22 08:55:00;;;;;;;9.70;5.00;;;20.60;99.90;;;;;;4825688;29;20427;-82
2023/07/22 08:57:29;;;;;;;6.97;5.77;;;20.70;99.90;;;;;;4818287;29;20438;-82
2023/07/22 08:59:57;;;;;;;6.13;5.20;;;20.90;99.90;;;;;;4823290;29;20820;-83
2023/07/22 09:02:25;;;;;;;6.30;5.70;;;21.10;99.90;;;;;;4826095;29;20419;-82
2023/07/22 09:04:50;;;;;;;8.20;5.40;;;20.90;99.90;;;;;;4825860;29;20603;-83
2023/07/22 09:07:17;;;;;;;7.27;5.87;;;21.30;99.90;;;;;;4823418;29;20517;-83
2023/07/22 09:09:46;;;;;;;6.83;4.67;;;21.10;99.90;;;;;;4825478;29;20991;-83
2023/07/22 09:12:14;;;;;;;8.60;5.50;;;21.20;99.90;;;;;;4825786;29;20735;-82
2023/07/22 09:14:40;;;;;;;8.97;4.77;;;21.20;99.90;;;;;;4825021;29;20419;-83
2023/07/22 09:17:06;;;;;;;6.70;4.40;;;21.30;99.90;;;;;;4825493;29;20427;-82
2023/07/22 09:19:31;;;;;;;7.43;4.50;;;21.30;99.90;;;;;;4825394;29;20490;-83
2023/07/22 09:21:58;;;;;;;6.63;4.90;;;21.70;99.90;;;;;;4824600;29;20194;-82
2023/07/22 09:24:25;;;;;;;7.50;5.17;;;21.50;99.90;;;;;;4824162;29;20189;-82
2023/07/22 09:26:51;;;;;;;6.37;4.40;;;21.20;99.90;;;;;;4825114;29;20634;-83
2023/07/22 09:29:18;;;;;;;5.27;3.93;;;21.60;99.90;;;;;;4825246;29;20438;-85
2023/07/22 09:31:53;;;;;;;6.20;3.17;;;22.20;99.90;;;;;;4834387;29;20496;-84
2023/07/22 09:34:19;;;;;;;3.70;3.40;;;22.30;99.90;;;;;;4843860;29;20465;-83
2023/07/22 09:36:56;;;;;;;4.60;3.57;;;22.30;99.90;;;;;;4842482;29;20414;-82
2023/07/22 09:39:22;;;;;;;7.37;3.83;;;21.90;99.90;;;;;;4842914;29;20550;-82
2023/07/22 09:41:49;;;;;;;2.87;2.67;;;21.90;99.90;;;;;;4842823;29;20425;-82
2023/07/22 09:44:15;;;;;;;4.90;3.80;;;21.80;99.90;;;;;;4842351;29;21040;-83
2023/07/22 09:46:46;;;;;;;4.30;3.90;;;22.10;99.90;;;;;;4828866;29;20437;-82
2023/07/22 09:49:12;;;;;;;4.77;3.03;;;22.40;99.90;;;;;;4828011;29;20219;-83
2023/07/22 09:51:39;;;;;;;3.60;2.80;;;22.30;99.90;;;;;;4842278;29;20422;-84
2023/07/22 09:54:07;;;;;;;2.97;2.73;;;22.40;99.90;;;;;;4842009;29;20454;-83
2023/07/22 09:56:45;;;;;;;4.20;2.87;;;22.20;99.90;;;;;;4843203;29;20435;-83
2023/07/22 09:59:12;;;;;;;2.90;2.57;;;22.40;99.90;;;;;;4840546;29;20489;-83
2023/07/22 10:01:39;;;;;;;3.47;2.43;;;22.30;99.90;;;;;;4843622;29;20426;-82
2023/07/22 10:04:05;;;;;;;3.40;2.43;;;22.50;99.90;;;;;;4826970;29;20434;-83
2023/07/22 10:06:32;;;;;;;4.87;3.07;;;23.00;99.90;;;;;;4842667;29;20429;-82
2023/07/22 10:09:08;;;;;;;3.97;2.63;;;23.40;99.90;;;;;;4826495;29;20438;-83
2023/07/22 10:11:37;;;;;;;4.60;2.60;;;23.30;99.90;;;;;;4843468;29;20424;-86
2023/07/22 10:14:03;;;;;;;3.27;2.70;;;23.30;99.90;;;;;;4841758;29;20427;-85
2023/07/22 10:16:29;;;;;;;3.40;2.30;;;23.50;99.90;;;;;;4842606;29;20446;-82
2023/07/22 10:18:56;;;;;;;2.93;2.73;;;23.70;99.90;;;;;;4826449;29;20418;-82
2023/07/22 10:21:23;;;;;;;2.27;2.07;;;23.30;99.90;;;;;;4845709;29;20440;-85
2023/07/22 10:23:50;;;;;;;3.17;2.70;;;23.00;99.90;;;;;;4845915;29;20454;-83
2023/07/22 10:26:17;;;;;;;3.67;2.83;;;22.60;99.90;;;;;;4846479;29;20908;-82
2023/07/22 10:28:45;;;;;;;3.33;2.40;;;22.60;99.90;;;;;;4845524;29;20508;-83
2023/07/22 10:31:12;;;;;;;2.53;2.33;;;22.40;99.90;;;;;;4845162;29;20529;-82
2023/07/22 10:33:38;;;;;;;2.23;2.03;;;22.20;99.90;;;;;;4845726;29;20496;-83
2023/07/22 10:36:09;;;;;;;3.00;2.27;;;22.30;99.90;;;;;;4845909;29;20413;-80
2023/07/22 10:38:35;;;;;;;4.33;3.60;;;22.20;99.90;;;;;;4846272;29;20276;-84
2023/07/22 10:41:12;;;;;;;4.67;2.60;;;22.30;99.90;;;;;;4829699;29;20465;-82
2023/07/22 10:43:39;;;;;;;3.07;2.77;;;22.50;99.90;;;;;;4846661;29;20520;-83
2023/07/22 10:46:12;;;;;;;3.63;2.90;;;22.50;99.90;;;;;;4828945;29;20426;-84
2023/07/22 10:48:42;;;;;;;2.77;2.27;;;22.30;99.90;;;;;;4828984;29;20420;-84
2023/07/22 10:51:10;;;;;;;4.83;2.50;;;22.20;98.60;;;;;;4845489;29;20449;-83
2023/07/22 10:53:43;;;;;;;3.23;2.93;;;22.20;99.70;;;;;;4845175;29;20428;-82
2023/07/22 10:56:18;;;;;;;2.67;2.40;;;22.30;99.50;;;;;;4845832;29;20509;-82
2023/07/22 10:58:44;;;;;;;3.90;2.63;;;22.70;99.50;;;;;;4845247;29;20441;-83
2023/07/22 11:01:28;;;;;;;2.70;2.23;;;23.30;98.80;;;;;;4827745;29;20448;-83
2023/07/22 11:04:12;;;;;;;2.50;2.30;;;23.30;98.20;;;;;;4846665;29;20196;-82
2023/07/22 11:06:44;;;;;;;2.50;2.30;;;23.50;99.60;;;;;;4846262;29;20422;-81
2023/07/22 11:09:32;;;;;;;2.83;2.63;;;23.60;97.20;;;;;;4845036;29;21007;-81
2023/07/22 11:12:12;;;;;;;2.60;2.40;;;23.70;98.30;;;;;;4845121;29;20919;-82
2023/07/22 11:14:44;;;;;;;2.67;2.43;;;23.90;96.30;;;;;;4845726;29;20469;-81
2023/07/22 11:17:11;;;;;;;2.93;2.73;;;24.00;96.60;;;;;;4844431;29;20430;-82
2023/07/22 11:19:37;;;;;;;2.40;2.20;;;24.20;97.40;;;;;;4845825;29;20488;-81
2023/07/22 11:22:03;;;;;;;4.73;3.23;;;24.30;96.90;;;;;;4845037;29;20414;-81
2023/07/22 11:24:29;;;;;;;2.93;2.70;;;24.60;96.30;;;;;;4844907;29;20478;-82
2023/07/22 11:26:55;;;;;;;2.87;2.30;;;24.30;95.70;;;;;;4827801;29;20430;-80
2023/07/22 11:29:21;;;;;;;3.17;2.73;;;24.40;95.20;;;;;;4845752;29;20193;-81
2023/07/22 11:31:49;;;;;;;2.90;2.53;;;25.00;95.30;;;;;;4843695;29;20974;-81
2023/07/22 11:34:16;;;;;;;2.40;2.20;;;25.40;94.40;;;;;;4845696;29;20429;-81
2023/07/22 11:36:43;;;;;;;2.70;2.50;;;25.50;92.70;;;;;;4846091;29;20472;-81
2023/07/22 11:39:14;;;;;;;2.60;2.40;;;25.10;92.00;;;;;;4845320;29;20517;-81
2023/07/22 11:41:41;;;;;;;4.80;3.00;;;25.10;91.50;;;;;;4845580;29;20528;-81
2023/07/22 11:44:13;;;;;;;4.00;2.63;;;25.00;91.40;;;;;;4845462;29;20446;-81
2023/07/22 11:46:53;;;;;;;2.97;2.67;;;24.50;91.20;;;;;;4829777;29;20469;-81
2023/07/22 11:49:30;;;;;;;2.83;2.40;;;24.60;92.00;;;;;;4845553;29;20473;-82
2023/07/22 11:51:59;;;;;;;2.67;2.20;;;24.90;91.80;;;;;;4845063;29;20425;-82
2023/07/22 11:54:25;;;;;;;4.53;2.50;;;25.00;91.20;;;;;;4845308;29;20418;-81
2023/07/22 11:56:51;;;;;;;3.00;2.70;;;25.20;90.90;;;;;;4828437;29;20466;-82
2023/07/22 11:59:17;;;;;;;3.13;2.70;;;25.40;90.50;;;;;;4844908;29;20473;-81
2023/07/22 12:01:46;;;;;;;4.40;2.57;;;25.70;87.00;;;;;;4845079;29;20268;-82
2023/07/22 12:04:13;;;;;;;3.00;2.27;;;26.10;85.30;;;;;;4844443;29;20200;-82
2023/07/22 12:06:39;;;;;;;3.40;2.60;;;26.50;85.30;;;;;;4845129;29;20494;-82
2023/07/22 12:09:08;;;;;;;2.50;2.30;;;26.50;80.60;;;;;;4828007;29;21002;-82
2023/07/22 12:11:34;;;;;;;2.43;2.20;;;26.40;79.00;;;;;;4845057;29;20421;-81
2023/07/22 12:14:11;;;;;;;3.10;2.40;;;26.30;79.90;;;;;;4844706;29;20780;-81
2023/07/22 12:16:38;;;;;;;2.97;2.67;;;26.80;76.80;;;;;;4828409;29;20192;-81
2023/07/22 12:19:05;;;;;;;3.20;2.00;;;26.70;77.40;;;;;;4844203;29;20492;-81
2023/07/22 12:21:31;;;;;;;2.43;2.23;;;26.30;75.00;;;;;;4844420;29;20957;-81
2023/07/22 12:23:57;;;;;;;2.67;2.40;;;26.20;73.50;;;;;;4827680;29;20426;-81
2023/07/22 12:26:22;;;;;;;2.77;2.10;;;25.80;72.50;;;;;;4844733;29;20253;-81
2023/07/22 12:28:48;;;;;;;2.77;1.90;;;25.80;72.90;;;;;;4844426;29;20642;-81
2023/07/22 12:31:13;;;;;;;2.57;2.17;;;26.30;71.50;;;;;;4844301;29;20236;-81
2023/07/22 12:33:39;;;;;;;3.57;2.43;;;26.00;71.50;;;;;;4844573;29;20185;-81
2023/07/22 12:36:05;;;;;;;2.70;2.23;;;26.20;71.10;;;;;;4844258;29;20265;-82
2023/07/22 12:38:31;;;;;;;2.47;1.90;;;26.10;70.60;;;;;;4844282;29;20222;-81
2023/07/22 12:40:57;;;;;;;2.80;2.53;;;26.20;70.70;;;;;;4843902;29;20274;-81